Terminal Aerodrome Forecast
Issued by NWS

Home | Current Version | Previous Version | Text Only | Print | Product List | Glossary On
Versions: 1 2 3 4 5 6 7 8 9 10 11 12 13 14 15 16 17 18 19 20 21 22 23 24 25 26
000
FTUS45 KLKN 032320
TAFEKO
TAF
KEKO 032320Z 0400/0424 20010G18KT P6SM VCTS SCT100CB
      TEMPO 0400/0404 VRB20G35KT TS SCT050CB BKN080
     FM040400 05006KT P6SM VCSH SCT060 BKN120
     FM040700 VRB04KT P6SM BKN120
     FM041930 23006KT P6SM VCTS BKN100CB=

USA.gov is the U.S. government's official web portal to all federal, state and local government web resources and services.